SIA898 WSSS-VHHH
Flight info
| Callsign | SIA898 |
|---|---|
| Flight time | N/A |
| Altitude | 40000 |
| Route | VMR9B VMR M771 DUDIS/K0909F400 M771 DOSUT/N0485F430 M771 DULOP/N0491F410 Q1 CARSO/N0486F430 V551 BETTY |
| Aircraft | A359/H-SDE2E3GHIJ3J4J5LM1ORWXY/LB1D1 |
Departure
| Time | N/A |
|---|---|
| Airport | Singapore Changi Airport (WSSS) |
Arrival
| Time | 2026-05-07 15:18 |
|---|---|
| Airport | Hong Kong International Airport (VHHH) |
| Time | Latitude | Longitude | Altitude | Speed | Heading |
|---|---|---|---|---|---|
| 2026-05-07 14:48 | 18.85210 | 114.67613 | 37932 ft | 500 kts | 10° |
| 2026-05-07 14:48 | 18.88627 | 114.68392 | 37935 ft | 500 kts | 9° |
| 2026-05-07 14:49 | 18.95428 | 114.69918 | 37933 ft | 499 kts | 9° |
| 2026-05-07 14:49 | 19.07055 | 114.70712 | 37931 ft | 494 kts | 355° |
| 2026-05-07 14:50 | 19.23975 | 114.69744 | 37934 ft | 494 kts | 355° |
| 2026-05-07 14:50 | 19.41419 | 114.68696 | 37938 ft | 493 kts | 355° |
| 2026-05-07 14:51 | 19.68852 | 114.67038 | 37940 ft | 493 kts | 355° |
| 2026-05-07 14:51 | 19.96088 | 114.65386 | 37945 ft | 492 kts | 355° |
| 2026-05-07 14:52 | 20.23486 | 114.63718 | 37947 ft | 492 kts | 354° |
| 2026-05-07 14:52 | 20.50801 | 114.62051 | 37949 ft | 492 kts | 354° |
| 2026-05-07 14:53 | 20.78059 | 114.60379 | 37950 ft | 492 kts | 354° |
| 2026-05-07 14:53 | 21.05196 | 114.58712 | 37950 ft | 493 kts | 354° |
| 2026-05-07 14:54 | 21.32139 | 114.57049 | 37952 ft | 492 kts | 354° |
| 2026-05-07 14:54 | 21.38947 | 114.56629 | 37220 ft | 484 kts | 354° |
| 2026-05-07 14:55 | 21.42326 | 114.56418 | 36050 ft | 491 kts | 354° |
| 2026-05-07 14:55 | 21.45762 | 114.56207 | 34891 ft | 498 kts | 354° |
| 2026-05-07 14:55 | 21.49168 | 114.55759 | 33850 ft | 499 kts | 344° |
| 2026-05-07 14:55 | 21.52499 | 114.54729 | 33103 ft | 493 kts | 340° |
| 2026-05-07 14:56 | 21.55760 | 114.53606 | 32435 ft | 488 kts | 340° |
| 2026-05-07 14:56 | 21.58951 | 114.52486 | 31784 ft | 484 kts | 339° |
| 2026-05-07 14:56 | 21.61957 | 114.50963 | 31111 ft | 476 kts | 326° |
| 2026-05-07 14:56 | 21.64507 | 114.48733 | 30480 ft | 469 kts | 312° |
| 2026-05-07 14:57 | 21.66661 | 114.46122 | 29866 ft | 464 kts | 309° |
| 2026-05-07 14:57 | 21.68751 | 114.43504 | 29376 ft | 456 kts | 309° |
| 2026-05-07 14:57 | 21.70830 | 114.40965 | 29031 ft | 446 kts | 310° |
| 2026-05-07 14:57 | 21.72878 | 114.38515 | 28629 ft | 437 kts | 310° |
| 2026-05-07 14:58 | 21.74892 | 114.36135 | 28089 ft | 433 kts | 311° |
| 2026-05-07 14:58 | 21.76911 | 114.33769 | 27635 ft | 426 kts | 311° |
| 2026-05-07 14:58 | 21.78899 | 114.31450 | 27350 ft | 418 kts | 311° |
| 2026-05-07 14:58 | 21.80907 | 114.29110 | 27178 ft | 435 kts | 311° |
| 2026-05-07 14:59 | 21.83004 | 114.26676 | 27135 ft | 451 kts | 311° |
| 2026-05-07 14:59 | 21.85170 | 114.24152 | 27117 ft | 459 kts | 310° |
| 2026-05-07 14:59 | 21.87117 | 114.21519 | 26979 ft | 441 kts | 304° |
| 2026-05-07 14:59 | 21.88738 | 114.18805 | 26497 ft | 416 kts | 300° |
| 2026-05-07 15:00 | 21.90169 | 114.16222 | 25988 ft | 396 kts | 300° |
| 2026-05-07 15:00 | 21.91526 | 114.13720 | 25488 ft | 378 kts | 299° |
| 2026-05-07 15:00 | 21.92830 | 114.11293 | 24850 ft | 366 kts | 299° |
| 2026-05-07 15:00 | 21.94072 | 114.08972 | 24129 ft | 359 kts | 299° |
| 2026-05-07 15:01 | 21.95309 | 114.06660 | 23381 ft | 352 kts | 299° |
| 2026-05-07 15:01 | 21.96519 | 114.04396 | 22496 ft | 347 kts | 299° |
| 2026-05-07 15:01 | 21.97718 | 114.02154 | 21576 ft | 343 kts | 299° |
| 2026-05-07 15:01 | 21.98906 | 113.99933 | 20690 ft | 340 kts | 299° |
| 2026-05-07 15:02 | 22.00084 | 113.97730 | 19829 ft | 337 kts | 299° |
| 2026-05-07 15:02 | 22.01246 | 113.95557 | 19008 ft | 333 kts | 299° |
| 2026-05-07 15:02 | 22.02384 | 113.93426 | 18199 ft | 330 kts | 298° |
| 2026-05-07 15:02 | 22.03528 | 113.91284 | 17276 ft | 327 kts | 298° |
| 2026-05-07 15:03 | 22.04659 | 113.89168 | 16432 ft | 323 kts | 298° |
| 2026-05-07 15:03 | 22.05771 | 113.87084 | 15757 ft | 314 kts | 298° |
| 2026-05-07 15:03 | 22.06834 | 113.85090 | 15344 ft | 299 kts | 298° |
| 2026-05-07 15:03 | 22.07868 | 113.83175 | 14640 ft | 295 kts | 300° |
| 2026-05-07 15:04 | 22.09001 | 113.81290 | 13646 ft | 302 kts | 303° |
| 2026-05-07 15:04 | 22.10266 | 113.79444 | 12485 ft | 310 kts | 306° |
| 2026-05-07 15:04 | 22.11660 | 113.77647 | 11476 ft | 313 kts | 310° |
| 2026-05-07 15:04 | 22.13125 | 113.75990 | 11073 ft | 295 kts | 314° |
| 2026-05-07 15:05 | 22.14568 | 113.74565 | 10820 ft | 274 kts | 318° |
| 2026-05-07 15:05 | 22.16016 | 113.73338 | 10570 ft | 257 kts | 322° |
| 2026-05-07 15:05 | 22.17489 | 113.72292 | 10334 ft | 252 kts | 327° |
| 2026-05-07 15:05 | 22.19028 | 113.71393 | 10108 ft | 253 kts | 332° |
| 2026-05-07 15:06 | 22.20642 | 113.70634 | 9875 ft | 253 kts | 337° |
| 2026-05-07 15:06 | 22.22335 | 113.70019 | 9624 ft | 253 kts | 342° |
| 2026-05-07 15:06 | 22.24045 | 113.69568 | 9396 ft | 263 kts | 347° |
| 2026-05-07 15:06 | 22.25886 | 113.69248 | 9234 ft | 270 kts | 351° |
| 2026-05-07 15:07 | 22.27776 | 113.69081 | 9156 ft | 273 kts | 355° |
| 2026-05-07 15:07 | 22.29670 | 113.69065 | 8926 ft | 271 kts | 360° |
| 2026-05-07 15:07 | 22.31541 | 113.69260 | 8704 ft | 272 kts | 11° |
| 2026-05-07 15:07 | 22.33246 | 113.70148 | 8392 ft | 274 kts | 37° |
| 2026-05-07 15:08 | 22.34442 | 113.71731 | 8040 ft | 274 kts | 63° |
| 2026-05-07 15:08 | 22.34894 | 113.73707 | 7690 ft | 272 kts | 90° |
| 2026-05-07 15:08 | 22.34595 | 113.75703 | 7331 ft | 269 kts | 107° |
| 2026-05-07 15:08 | 22.33966 | 113.77598 | 6985 ft | 267 kts | 113° |
| 2026-05-07 15:09 | 22.33216 | 113.79426 | 6630 ft | 266 kts | 116° |
| 2026-05-07 15:09 | 22.32416 | 113.81227 | 6276 ft | 264 kts | 117° |
| 2026-05-07 15:09 | 22.31455 | 113.82856 | 5913 ft | 260 kts | 135° |
| 2026-05-07 15:09 | 22.30181 | 113.84235 | 5549 ft | 258 kts | 136° |
| 2026-05-07 15:10 | 22.28881 | 113.85565 | 5192 ft | 256 kts | 138° |
| 2026-05-07 15:10 | 22.27558 | 113.86849 | 4831 ft | 254 kts | 139° |
| 2026-05-07 15:10 | 22.26235 | 113.88044 | 4469 ft | 252 kts | 143° |
| 2026-05-07 15:10 | 22.24696 | 113.88966 | 4016 ft | 264 kts | 161° |
| 2026-05-07 15:11 | 22.22871 | 113.89179 | 3511 ft | 268 kts | 189° |
| 2026-05-07 15:11 | 22.21199 | 113.88368 | 3120 ft | 263 kts | 218° |
| 2026-05-07 15:11 | 22.19817 | 113.87089 | 3001 ft | 262 kts | 220° |
| 2026-05-07 15:11 | 22.18536 | 113.85686 | 2977 ft | 265 kts | 237° |
| 2026-05-07 15:12 | 22.17979 | 113.83848 | 2898 ft | 259 kts | 264° |
| 2026-05-07 15:12 | 22.17946 | 113.83197 | 2851 ft | 255 kts | 268° |
| 2026-05-07 15:12 | 22.17593 | 113.80107 | 2250 ft | 249 kts | 251° |
| 2026-05-07 15:12 | 22.16981 | 113.78410 | 2015 ft | 243 kts | 250° |
| 2026-05-07 15:13 | 22.16881 | 113.76653 | 1996 ft | 246 kts | 277° |
| 2026-05-07 15:13 | 22.17502 | 113.74945 | 1983 ft | 240 kts | 304° |
| 2026-05-07 15:13 | 22.18718 | 113.73801 | 1980 ft | 230 kts | 333° |
| 2026-05-07 15:13 | 22.20263 | 113.73429 | 1987 ft | 230 kts | 2° |
| 2026-05-07 15:14 | 22.21849 | 113.73719 | 1992 ft | 233 kts | 14° |
| 2026-05-07 15:14 | 22.23389 | 113.74154 | 1978 ft | 219 kts | 15° |
| 2026-05-07 15:14 | 22.24812 | 113.74572 | 1995 ft | 209 kts | 15° |
| 2026-05-07 15:14 | 22.26194 | 113.74983 | 2001 ft | 203 kts | 16° |
| 2026-05-07 15:15 | 22.27451 | 113.75597 | 1989 ft | 196 kts | 35° |
| 2026-05-07 15:15 | 22.28384 | 113.76638 | 1992 ft | 190 kts | 59° |
| 2026-05-07 15:15 | 22.28895 | 113.77870 | 1949 ft | 172 kts | 74° |
| 2026-05-07 15:15 | 22.29236 | 113.79076 | 1759 ft | 166 kts | 75° |
| 2026-05-07 15:16 | 22.29591 | 113.80225 | 1534 ft | 156 kts | 72° |
| 2026-05-07 15:16 | 22.29940 | 113.81299 | 1337 ft | 149 kts | 72° |
| 2026-05-07 15:16 | 22.30279 | 113.82352 | 1146 ft | 148 kts | 73° |
| 2026-05-07 15:16 | 22.30607 | 113.83384 | 975 ft | 147 kts | 73° |
| 2026-05-07 15:17 | 22.30939 | 113.84422 | 792 ft | 145 kts | 72° |
| 2026-05-07 15:17 | 22.31267 | 113.85446 | 607 ft | 143 kts | 72° |
| 2026-05-07 15:17 | 22.31591 | 113.86458 | 409 ft | 141 kts | 72° |
| 2026-05-07 15:17 | 22.31902 | 113.87440 | 231 ft | 138 kts | 73° |
| 2026-05-07 15:18 | 22.32217 | 113.88401 | 69 ft | 139 kts | 70° |
| 2026-05-07 15:18 | 22.32509 | 113.89314 | 38 ft | 123 kts | 71° |
| 2026-05-07 15:18 | 22.32683 | 113.89871 | 37 ft | 26 kts | 73° |
| 2026-05-07 15:18 | 22.32702 | 113.90015 | 39 ft | 19 kts | 85° |
| 2026-05-07 15:19 | 22.32688 | 113.90136 | 39 ft | 0 kts | 100° |
| 2026-05-07 15:19 | 22.32688 | 113.90137 | 39 ft | 0 kts | 100° |
| 2026-05-07 15:20 | 22.32687 | 113.90144 | 39 ft | 3 kts | 100° |
| 2026-05-07 15:20 | 22.32678 | 113.90197 | 38 ft | 11 kts | 100° |
| 2026-05-07 15:20 | 22.32661 | 113.90301 | 38 ft | 17 kts | 102° |
| 2026-05-07 15:20 | 22.32572 | 113.90393 | 38 ft | 21 kts | 159° |
| 2026-05-07 15:21 | 22.32418 | 113.90454 | 38 ft | 26 kts | 160° |
| 2026-05-07 15:21 | 22.32230 | 113.90522 | 38 ft | 30 kts | 161° |
| 2026-05-07 15:21 | 22.32024 | 113.90598 | 38 ft | 32 kts | 161° |
| 2026-05-07 15:21 | 22.31805 | 113.90679 | 39 ft | 34 kts | 161° |
| 2026-05-07 15:22 | 22.31647 | 113.90738 | 39 ft | 0 kts | 161° |
| 2026-05-07 15:22 | 22.31633 | 113.90743 | 39 ft | 5 kts | 161° |
| 2026-05-07 15:22 | 22.31605 | 113.90776 | 39 ft | 7 kts | 115° |
| 2026-05-07 15:23 | 22.31611 | 113.90845 | 39 ft | 13 kts | 78° |
| 2026-05-07 15:23 | 22.31646 | 113.90953 | 39 ft | 19 kts | 70° |
| 2026-05-07 15:23 | 22.31698 | 113.91109 | 39 ft | 26 kts | 71° |
| 2026-05-07 15:23 | 22.31762 | 113.91313 | 39 ft | 32 kts | 71° |
| 2026-05-07 15:24 | 22.31833 | 113.91543 | 39 ft | 33 kts | 71° |
| 2026-05-07 15:24 | 22.31912 | 113.91782 | 39 ft | 34 kts | 71° |
| 2026-05-07 15:24 | 22.31990 | 113.92023 | 39 ft | 36 kts | 70° |
| 2026-05-07 15:24 | 22.32074 | 113.92283 | 39 ft | 37 kts | 71° |
| 2026-05-07 15:25 | 22.32161 | 113.92551 | 38 ft | 39 kts | 70° |
| 2026-05-07 15:25 | 22.32183 | 113.92636 | 38 ft | 0 kts | 92° |
| 2026-05-07 15:25 | 22.32181 | 113.92655 | 38 ft | 15 kts | 99° |
| 2026-05-07 15:25 | 22.31984 | 113.92761 | 41 ft | 28 kts | 156° |
| 2026-05-07 15:26 | 22.31794 | 113.92843 | 38 ft | 31 kts | 158° |
| 2026-05-07 15:26 | 22.31597 | 113.92918 | 38 ft | 27 kts | 162° |
| 2026-05-07 15:26 | 22.31558 | 113.92922 | 38 ft | 0 kts | 189° |
| 2026-05-07 15:26 | 22.31549 | 113.92919 | 38 ft | 5 kts | 198° |
| 2026-05-07 15:27 | 22.31492 | 113.92908 | 38 ft | 6 kts | 166° |
| 2026-05-07 15:27 | 22.31485 | 113.92911 | 38 ft | 3 kts | 165° |
| 2026-05-07 15:27 | 22.31462 | 113.92918 | 38 ft | 1 kts | 163° |
| 2026-05-07 15:27 | 22.31450 | 113.92922 | 38 ft | 0 kts | 163° |
| 2026-05-07 15:28 | 22.31438 | 113.92926 | 38 ft | 0 kts | 162° |
| 2026-05-07 15:28 | 22.31432 | 113.92928 | 38 ft | 1 kts | 162° |